sensor_id;sensor_type;location;lat;lon;timestamp;P1;durP1;ratioP1;P2;durP2;ratioP2
31686;SDS011;18285;51.330;4.946;2023-06-14T00:00:24;2.58;;;2.38;;
31686;SDS011;18285;51.330;4.946;2023-06-14T00:24:35;3.28;;;2.70;;
31686;SDS011;18285;51.330;4.946;2023-06-14T00:48:46;3.33;;;2.50;;
31686;SDS011;18285;51.330;4.946;2023-06-14T01:37:21;2.55;;;2.35;;
31686;SDS011;18285;51.330;4.946;2023-06-14T02:01:34;2.60;;;2.40;;
31686;SDS011;18285;51.330;4.946;2023-06-14T02:25:44;6.50;;;2.30;;
31686;SDS011;18285;51.330;4.946;2023-06-14T02:49:56;2.40;;;2.00;;
31686;SDS011;18285;51.330;4.946;2023-06-14T03:14:07;2.45;;;2.15;;
31686;SDS011;18285;51.330;4.946;2023-06-14T03:38:18;2.50;;;2.13;;
31686;SDS011;18285;51.330;4.946;2023-06-14T04:02:28;2.67;;;2.05;;
31686;SDS011;18285;51.330;4.946;2023-06-14T04:26:41;2.80;;;1.88;;
31686;SDS011;18285;51.330;4.946;2023-06-14T04:50:54;2.95;;;2.30;;
31686;SDS011;18285;51.330;4.946;2023-06-14T05:15:05;6.47;;;4.05;;
31686;SDS011;18285;51.330;4.946;2023-06-14T05:39:18;9.65;;;4.57;;
31686;SDS011;18285;51.330;4.946;2023-06-14T06:27:44;7.93;;;3.95;;
31686;SDS011;18285;51.330;4.946;2023-06-14T06:52:05;8.52;;;3.70;;
31686;SDS011;18285;51.330;4.946;2023-06-14T07:16:16;4.07;;;3.10;;
31686;SDS011;18285;51.330;4.946;2023-06-14T07:40:27;4.22;;;3.13;;
31686;SDS011;18285;51.330;4.946;2023-06-14T08:04:38;4.20;;;2.90;;
31686;SDS011;18285;51.330;4.946;2023-06-14T08:28:49;6.35;;;3.00;;
31686;SDS011;18285;51.330;4.946;2023-06-14T08:53:00;4.70;;;2.67;;
31686;SDS011;18285;51.330;4.946;2023-06-14T09:17:13;4.53;;;2.80;;
31686;SDS011;18285;51.330;4.946;2023-06-14T10:05:45;5.00;;;2.83;;
31686;SDS011;18285;51.330;4.946;2023-06-14T10:54:12;5.68;;;2.47;;
31686;SDS011;18285;51.330;4.946;2023-06-14T11:18:23;3.63;;;2.30;;
31686;SDS011;18285;51.330;4.946;2023-06-14T11:42:35;2.50;;;1.80;;
31686;SDS011;18285;51.330;4.946;2023-06-14T12:06:47;2.92;;;2.10;;
31686;SDS011;18285;51.330;4.946;2023-06-14T12:30:58;3.17;;;1.67;;
31686;SDS011;18285;51.330;4.946;2023-06-14T12:55:09;2.63;;;1.40;;
31686;SDS011;18285;51.330;4.946;2023-06-14T13:19:19;2.92;;;1.50;;
31686;SDS011;18285;51.330;4.946;2023-06-14T13:43:31;1.40;;;1.20;;
31686;SDS011;18285;51.330;4.946;2023-06-14T14:07:41;1.65;;;1.20;;
31686;SDS011;18285;51.330;4.946;2023-06-14T14:31:52;1.88;;;0.77;;
31686;SDS011;18285;51.330;4.946;2023-06-14T14:56:03;1.02;;;0.88;;
31686;SDS011;18285;51.330;4.946;2023-06-14T15:20:14;3.15;;;1.10;;
31686;SDS011;18285;51.330;4.946;2023-06-14T15:44:25;3.90;;;1.35;;
31686;SDS011;18285;51.330;4.946;2023-06-14T16:08:36;2.10;;;1.20;;
31686;SDS011;18285;51.330;4.946;2023-06-14T16:32:46;3.35;;;1.10;;
31686;SDS011;18285;51.330;4.946;2023-06-14T16:56:57;3.30;;;1.42;;
31686;SDS011;18285;51.330;4.946;2023-06-14T17:21:08;2.40;;;1.50;;
31686;SDS011;18285;51.330;4.946;2023-06-14T17:45:19;3.80;;;1.67;;
31686;SDS011;18285;51.330;4.946;2023-06-14T18:09:29;2.90;;;1.70;;
31686;SDS011;18285;51.330;4.946;2023-06-14T18:33:40;2.20;;;1.75;;
31686;SDS011;18285;51.330;4.946;2023-06-14T18:57:51;2.90;;;1.63;;
31686;SDS011;18285;51.330;4.946;2023-06-14T19:22:02;4.35;;;1.60;;
31686;SDS011;18285;51.330;4.946;2023-06-14T19:46:12;2.38;;;1.45;;
31686;SDS011;18285;51.330;4.946;2023-06-14T20:10:26;2.05;;;1.50;;
31686;SDS011;18285;51.330;4.946;2023-06-14T20:34:38;4.78;;;2.60;;
31686;SDS011;18285;51.330;4.946;2023-06-14T20:58:49;4.90;;;2.10;;
31686;SDS011;18285;51.330;4.946;2023-06-14T21:23:00;3.65;;;2.17;;
31686;SDS011;18285;51.330;4.946;2023-06-14T21:47:11;2.55;;;1.70;;
31686;SDS011;18285;51.330;4.946;2023-06-14T22:11:23;3.20;;;1.65;;
31686;SDS011;18285;51.330;4.946;2023-06-14T22:35:39;2.53;;;1.95;;
31686;SDS011;18285;51.330;4.946;2023-06-14T22:59:50;1.85;;;1.55;;
31686;SDS011;18285;51.330;4.946;2023-06-14T23:24:03;1.80;;;1.45;;
